createdAt,value
2018-07-22T00:02:16.189Z,27.80
2018-07-22T00:04:44.843Z,26.83
2018-07-22T00:07:13.507Z,32.07
2018-07-22T00:09:42.263Z,32.93
2018-07-22T00:12:11.011Z,33.43
2018-07-22T00:14:39.694Z,37.60
2018-07-22T00:17:08.411Z,33.63
2018-07-22T00:19:37.126Z,31.17
2018-07-22T00:22:05.822Z,43.47
2018-07-22T00:24:41.069Z,40.33
2018-07-22T00:27:09.767Z,40.30
2018-07-22T00:29:38.397Z,45.70
2018-07-22T00:32:07.094Z,46.70
2018-07-22T00:34:35.861Z,40.97
2018-07-22T00:37:04.761Z,41.10
2018-07-22T00:39:33.381Z,38.63
2018-07-22T00:42:02.050Z,39.57
2018-07-22T00:44:30.706Z,37.90
2018-07-22T00:46:59.435Z,40.70
2018-07-22T00:49:28.224Z,35.00
2018-07-22T00:51:56.949Z,33.50
2018-07-22T00:54:25.596Z,35.47
2018-07-22T00:56:54.243Z,30.73
2018-07-22T00:59:22.888Z,31.93
2018-07-22T01:01:51.498Z,29.13
2018-07-22T01:04:20.190Z,29.47
2018-07-22T01:06:48.888Z,32.67
2018-07-22T01:09:17.260Z,29.50
2018-07-22T01:11:45.883Z,30.87
2018-07-22T01:14:14.554Z,25.87
2018-07-22T01:16:43.218Z,28.70
2018-07-22T01:19:11.943Z,25.70
2018-07-22T01:21:40.652Z,27.13
2018-07-22T01:24:09.351Z,25.00
2018-07-22T01:26:38.057Z,27.60
2018-07-22T01:29:06.789Z,22.23
2018-07-22T01:31:35.528Z,19.33
2018-07-22T01:34:04.295Z,20.57
2018-07-22T01:36:33.007Z,17.70
2018-07-22T01:39:01.630Z,18.00
2018-07-22T01:41:30.305Z,18.60
2018-07-22T01:43:59.059Z,19.93
2018-07-22T01:46:27.699Z,16.20
2018-07-22T01:48:56.350Z,16.30
2018-07-22T01:51:25.065Z,17.30
2018-07-22T01:53:53.719Z,15.87
2018-07-22T01:56:22.414Z,15.73
2018-07-22T01:58:51.217Z,15.23
2018-07-22T02:01:19.919Z,15.60
2018-07-22T02:03:48.647Z,14.97
2018-07-22T02:06:17.326Z,16.40
2018-07-22T02:08:46.016Z,14.37
2018-07-22T02:11:14.712Z,15.60
2018-07-22T02:13:43.370Z,16.23
2018-07-22T02:16:12.046Z,16.33
2018-07-22T02:18:40.783Z,14.57
2018-07-22T02:21:09.435Z,18.93
2018-07-22T02:23:38.137Z,14.53
2018-07-22T02:26:06.893Z,14.60
2018-07-22T02:28:35.536Z,14.60
2018-07-22T02:31:04.280Z,15.10
2018-07-22T02:33:33.144Z,13.97
2018-07-22T02:36:01.850Z,14.30
2018-07-22T02:38:30.522Z,14.20
2018-07-22T02:40:59.235Z,14.60
2018-07-22T02:43:27.934Z,15.50
2018-07-22T02:45:56.697Z,14.50
2018-07-22T02:48:25.391Z,16.57
2018-07-22T02:50:54.108Z,15.60
2018-07-22T02:53:22.811Z,14.77
2018-07-22T02:55:51.565Z,14.67
2018-07-22T02:58:20.245Z,17.60
2018-07-22T03:00:48.933Z,14.77
2018-07-22T03:03:17.642Z,16.03
2018-07-22T03:05:46.346Z,14.37
2018-07-22T03:08:15.068Z,14.80
2018-07-22T03:10:43.775Z,13.93
2018-07-22T03:13:12.413Z,15.07
2018-07-22T03:15:41.258Z,15.27
2018-07-22T03:18:09.924Z,15.30
2018-07-22T03:20:38.619Z,13.70
2018-07-22T03:23:07.307Z,14.23
2018-07-22T03:31:25.311Z,15.97
2018-07-22T03:33:54.052Z,15.27
2018-07-22T03:36:22.805Z,14.23
2018-07-22T03:38:51.578Z,13.83
2018-07-22T03:41:20.251Z,14.23
2018-07-22T03:43:49.016Z,15.20
2018-07-22T03:46:17.692Z,13.40
2018-07-22T03:48:46.417Z,15.10
2018-07-22T03:51:15.130Z,13.87
2018-07-22T03:53:43.773Z,14.63
2018-07-22T03:56:12.459Z,17.10
2018-07-22T03:58:41.039Z,13.37
2018-07-22T04:01:09.625Z,13.63
2018-07-22T04:03:38.287Z,15.17
2018-07-22T04:06:07.021Z,14.57
2018-07-22T04:08:35.700Z,14.30
2018-07-22T04:11:04.487Z,17.70
2018-07-22T04:13:33.160Z,14.03
2018-07-22T04:16:01.844Z,17.37
2018-07-22T04:18:30.556Z,14.07
2018-07-22T04:20:59.224Z,20.77
2018-07-22T04:23:27.516Z,16.07
2018-07-22T04:25:56.281Z,14.97
2018-07-22T04:28:24.962Z,16.07
2018-07-22T04:30:53.692Z,13.90
2018-07-22T04:33:22.348Z,17.93
2018-07-22T04:35:51.002Z,13.83
2018-07-22T04:38:19.630Z,15.70
2018-07-22T04:40:48.356Z,13.73
2018-07-22T04:43:17.002Z,15.87
2018-07-22T04:45:45.606Z,14.10
2018-07-22T04:48:14.405Z,14.67
2018-07-22T04:50:43.127Z,17.10
2018-07-22T04:53:11.856Z,15.37
2018-07-22T04:56:02.702Z,15.23
2018-07-22T04:58:35.292Z,16.87
2018-07-22T05:01:03.998Z,17.63
2018-07-22T05:03:32.724Z,18.90
2018-07-22T05:06:02.408Z,18.30
2018-07-22T05:08:31.152Z,18.70
2018-07-22T05:10:59.876Z,20.33
2018-07-22T05:22:12.423Z,18.60
2018-07-22T05:24:58.331Z,19.73
2018-07-22T05:27:27.038Z,19.10
2018-07-22T05:29:55.786Z,21.97
2018-07-22T05:32:25.505Z,21.10
2018-07-22T05:35:06.934Z,17.83
2018-07-22T05:37:35.589Z,18.80
2018-07-22T05:40:04.803Z,20.17
2018-07-22T05:42:33.463Z,20.20
2018-07-22T05:45:02.042Z,19.57
2018-07-22T05:47:30.810Z,18.43
2018-07-22T05:52:58.534Z,16.93
2018-07-22T05:55:27.308Z,19.83
2018-07-22T05:57:55.995Z,16.77
2018-07-22T06:00:24.707Z,18.03
2018-07-22T06:03:04.852Z,16.80
2018-07-22T06:05:33.635Z,18.60
2018-07-22T06:08:02.426Z,15.77
2018-07-22T06:10:31.088Z,16.40
2018-07-22T06:12:59.836Z,17.00
2018-07-22T06:15:28.567Z,16.37
2018-07-22T06:17:56.919Z,16.70
2018-07-22T06:20:25.532Z,15.50
2018-07-22T06:22:54.245Z,16.20
2018-07-22T06:25:22.983Z,17.30
2018-07-22T06:27:51.702Z,18.87
2018-07-22T06:30:20.490Z,16.57
2018-07-22T06:32:49.191Z,15.50
2018-07-22T06:35:17.864Z,14.50
2018-07-22T06:37:46.527Z,15.87
2018-07-22T06:40:15.195Z,18.30
2018-07-22T06:51:45.227Z,16.00
2018-07-22T06:54:13.986Z,17.10
2018-07-22T06:56:42.712Z,15.23
2018-07-22T06:59:11.462Z,18.97
2018-07-22T07:10:27.156Z,13.87
2018-07-22T07:12:55.887Z,15.10
2018-07-22T07:15:24.619Z,15.00
2018-07-22T07:17:53.395Z,14.23
2018-07-22T07:20:22.058Z,15.40
2018-07-22T07:22:50.726Z,13.83
2018-07-22T07:25:19.401Z,14.00
2018-07-22T07:27:48.138Z,15.63
2018-07-22T07:30:16.851Z,15.40
2018-07-22T07:32:45.502Z,15.83
2018-07-22T07:35:14.165Z,18.33
2018-07-22T07:37:42.945Z,15.50
2018-07-22T07:40:11.621Z,14.97
2018-07-22T07:45:57.762Z,15.13
2018-07-22T07:48:26.488Z,15.23
2018-07-22T07:50:55.281Z,17.00
2018-07-22T07:53:24.054Z,14.90
2018-07-22T07:55:52.756Z,14.87
2018-07-22T07:58:21.407Z,14.20
2018-07-22T08:00:50.145Z,14.10
2018-07-22T08:03:18.798Z,13.30
2018-07-22T08:05:47.566Z,14.13
2018-07-22T08:08:16.353Z,12.97
2018-07-22T08:10:45.033Z,13.10
2018-07-22T08:13:13.786Z,13.40
2018-07-22T08:15:42.483Z,13.50
2018-07-22T08:18:11.176Z,14.27
2018-07-22T08:20:39.962Z,12.73
2018-07-22T08:23:08.635Z,13.50
2018-07-22T08:25:37.447Z,14.47
2018-07-22T08:28:06.132Z,13.77
2018-07-22T08:30:34.949Z,14.43
2018-07-22T08:33:03.682Z,14.67
2018-07-22T08:35:32.481Z,14.60
2018-07-22T08:38:01.175Z,13.20
2018-07-22T08:40:29.795Z,12.77
2018-07-22T08:43:01.674Z,13.97
2018-07-22T08:45:30.353Z,13.33
2018-07-22T08:47:59.015Z,14.13
2018-07-22T08:50:27.738Z,12.70
2018-07-22T08:52:56.529Z,13.47
2018-07-22T08:55:25.213Z,12.27
2018-07-22T08:57:53.830Z,11.87
2018-07-22T09:00:22.477Z,11.23
2018-07-22T09:02:51.136Z,11.30
2018-07-22T09:05:19.781Z,10.40
2018-07-22T09:07:48.439Z,12.43
2018-07-22T09:10:17.120Z,13.33
2018-07-22T09:12:45.815Z,11.97
2018-07-22T09:15:14.562Z,13.07
2018-07-22T09:17:43.268Z,11.00
2018-07-22T09:20:11.952Z,10.07
2018-07-22T09:22:40.611Z,10.43
2018-07-22T09:25:09.260Z,9.53
2018-07-22T09:27:37.924Z,10.83
2018-07-22T09:30:06.824Z,9.60
2018-07-22T09:32:35.571Z,10.83
2018-07-22T09:35:04.365Z,11.33
2018-07-22T09:37:33.038Z,11.57
2018-07-22T09:40:01.894Z,12.37
2018-07-22T09:42:30.453Z,12.33
2018-07-22T09:44:59.233Z,11.20
2018-07-22T09:47:27.854Z,10.93
2018-07-22T09:49:56.672Z,11.70
2018-07-22T09:52:25.407Z,11.33
2018-07-22T09:54:54.134Z,10.30
2018-07-22T09:57:22.834Z,9.10
2018-07-22T09:59:51.467Z,11.30
2018-07-22T10:02:20.218Z,11.70
2018-07-22T10:04:49.071Z,12.07
2018-07-22T10:07:17.888Z,13.60
2018-07-22T10:09:46.539Z,14.73
2018-07-22T10:12:15.219Z,14.10
2018-07-22T10:14:43.982Z,15.83
2018-07-22T10:17:12.608Z,16.60
2018-07-22T10:19:41.308Z,17.93
2018-07-22T10:22:10.109Z,19.37
2018-07-22T10:24:38.883Z,19.70
2018-07-22T10:27:07.625Z,22.73
2018-07-22T10:29:36.302Z,21.27
2018-07-22T10:32:05.059Z,21.50
2018-07-22T10:34:33.732Z,22.80
2018-07-22T10:37:02.456Z,23.60
2018-07-22T10:39:31.227Z,22.20
2018-07-22T10:42:00.020Z,23.10
2018-07-22T10:44:28.678Z,20.87
2018-07-22T10:46:57.472Z,19.63
2018-07-22T10:49:26.202Z,20.37
2018-07-22T10:51:54.930Z,19.63
2018-07-22T10:54:23.650Z,22.63
2018-07-22T10:56:52.345Z,22.50
2018-07-22T10:59:21.366Z,22.50
2018-07-22T11:01:50.129Z,23.70
2018-07-22T11:04:18.930Z,22.00
2018-07-22T11:06:47.599Z,21.17
2018-07-22T11:09:16.341Z,21.63
2018-07-22T11:11:45.071Z,22.53
2018-07-22T11:14:13.825Z,22.83
2018-07-22T11:16:42.609Z,20.50
2018-07-22T11:19:11.418Z,19.43
2018-07-22T11:21:40.179Z,18.67
2018-07-22T11:24:08.921Z,18.27
2018-07-22T11:26:38.158Z,17.83
2018-07-22T11:29:07.063Z,17.90
2018-07-22T11:31:35.710Z,19.40
2018-07-22T11:34:04.478Z,16.93
2018-07-22T11:36:33.164Z,18.83
2018-07-22T11:39:01.823Z,16.50
2018-07-22T11:41:30.559Z,16.07
2018-07-22T11:43:59.432Z,16.47
2018-07-22T11:46:28.190Z,16.03
2018-07-22T11:48:56.915Z,15.97
2018-07-22T11:51:25.736Z,14.93
2018-07-22T11:53:54.543Z,14.80
2018-07-22T11:56:23.310Z,14.03
2018-07-22T11:58:52.046Z,13.33
2018-07-22T12:01:20.915Z,13.53
2018-07-22T12:03:49.747Z,14.50
2018-07-22T12:06:18.620Z,14.47
2018-07-22T12:08:47.257Z,18.93
2018-07-22T12:11:15.907Z,13.73
2018-07-22T12:13:48.531Z,13.13
2018-07-22T12:16:17.226Z,12.93
2018-07-22T12:18:46.056Z,14.30
2018-07-22T12:21:27.450Z,14.70
2018-07-22T12:24:06.251Z,16.10
2018-07-22T12:26:35.037Z,18.40
2018-07-22T12:29:03.905Z,25.20
2018-07-22T12:31:35.835Z,23.90
2018-07-22T12:34:04.566Z,24.57
2018-07-22T12:36:34.602Z,31.17
2018-07-22T12:39:03.426Z,28.80
2018-07-22T12:41:32.263Z,31.73
2018-07-22T12:44:02.937Z,26.70
2018-07-22T12:46:31.731Z,26.27
2018-07-22T12:55:04.502Z,38.70
2018-07-22T12:57:57.138Z,52.17
2018-07-22T13:00:25.823Z,31.23
2018-07-22T13:02:54.563Z,87.17
2018-07-22T13:05:22.822Z,39.30
2018-07-22T13:07:51.406Z,35.83
2018-07-22T13:10:33.209Z,53.03
2018-07-22T13:13:01.962Z,38.50
2018-07-22T13:15:30.645Z,36.33
2018-07-22T13:18:11.667Z,44.33
2018-07-22T13:20:40.358Z,45.80
2018-07-22T13:23:33.020Z,46.10
2018-07-22T13:26:12.340Z,51.67
2018-07-22T13:28:41.106Z,49.27
2018-07-22T13:31:09.831Z,49.77
2018-07-22T13:33:38.538Z,51.77
2018-07-22T13:36:07.243Z,47.20
2018-07-22T13:38:35.973Z,44.27
2018-07-22T13:41:04.714Z,50.23
2018-07-22T13:43:33.533Z,46.23
2018-07-22T13:46:02.256Z,44.13
2018-07-22T13:48:30.927Z,41.70
2018-07-22T13:51:01.792Z,42.90
2018-07-22T13:53:30.512Z,39.77
2018-07-22T13:58:51.993Z,40.53
2018-07-22T14:01:20.910Z,42.10
2018-07-22T14:03:49.708Z,42.87
2018-07-22T14:12:05.474Z,32.33
2018-07-22T14:14:34.200Z,34.50
2018-07-22T14:17:02.954Z,35.80
2018-07-22T14:19:31.578Z,36.17
2018-07-22T14:22:00.357Z,36.83
2018-07-22T14:24:29.109Z,33.70
2018-07-22T14:26:57.764Z,32.60
2018-07-22T14:29:26.408Z,33.03
2018-07-22T14:31:55.245Z,33.03
2018-07-22T14:34:23.850Z,31.40
2018-07-22T14:36:52.536Z,28.17
2018-07-22T14:39:21.311Z,27.40
2018-07-22T14:41:50.056Z,32.40
2018-07-22T14:44:18.782Z,31.97
2018-07-22T14:46:47.589Z,30.03
2018-07-22T14:49:16.300Z,26.33
2018-07-22T14:51:44.997Z,28.30
2018-07-22T14:54:13.690Z,31.60
2018-07-22T14:56:53.761Z,31.90
2018-07-22T14:59:24.523Z,32.70
2018-07-22T15:01:53.284Z,34.67
2018-07-22T15:04:21.986Z,31.93
2018-07-22T15:06:50.673Z,32.73
2018-07-22T15:09:19.537Z,28.47
2018-07-22T15:11:48.293Z,33.67
2018-07-22T15:14:17.166Z,35.40
2018-07-22T15:16:45.836Z,33.60
2018-07-22T15:19:14.524Z,41.17
2018-07-22T15:21:43.265Z,40.87
2018-07-22T15:24:12.048Z,35.17
2018-07-22T15:26:40.825Z,37.80
2018-07-22T15:29:09.617Z,45.40
2018-07-22T15:31:38.345Z,43.30
2018-07-22T15:34:07.096Z,43.67
2018-07-22T15:39:40.237Z,40.53
2018-07-22T15:42:09.021Z,39.23
2018-07-22T15:44:37.772Z,37.77
2018-07-22T15:47:06.508Z,43.27
2018-07-22T15:49:35.233Z,41.23
2018-07-22T15:52:05.055Z,42.83
2018-07-22T15:54:33.770Z,44.63
2018-07-22T15:57:02.487Z,44.87
2018-07-22T15:59:31.087Z,39.77
2018-07-22T16:01:59.792Z,36.50
2018-07-22T16:04:28.562Z,37.70
2018-07-22T16:06:57.318Z,36.17
2018-07-22T16:09:26.026Z,36.60
2018-07-22T16:11:54.791Z,38.43
2018-07-22T16:17:22.563Z,31.00
2018-07-22T16:19:51.278Z,29.33
2018-07-22T16:22:20.017Z,28.20
2018-07-22T16:24:48.745Z,25.23
2018-07-22T16:27:17.457Z,23.10
2018-07-22T16:29:46.196Z,21.33
2018-07-22T16:32:14.901Z,26.07
2018-07-22T16:34:43.973Z,26.70
2018-07-22T16:40:28.614Z,28.97
2018-07-22T16:42:57.305Z,29.57
2018-07-22T16:45:26.107Z,31.97
2018-07-22T16:53:40.637Z,39.03
2018-07-22T16:56:09.352Z,39.40
2018-07-22T16:58:38.073Z,44.40
2018-07-22T17:01:07.840Z,39.60
2018-07-22T17:03:36.539Z,39.50
2018-07-22T17:06:05.303Z,36.90
2018-07-22T17:08:34.083Z,34.10
2018-07-22T17:11:02.759Z,34.00
2018-07-22T17:13:31.484Z,37.33
2018-07-22T17:16:00.140Z,35.47
2018-07-22T17:18:28.844Z,36.57
2018-07-22T17:20:57.650Z,35.70
2018-07-22T17:23:26.417Z,38.17
2018-07-22T17:25:55.134Z,35.60
2018-07-22T17:28:24.032Z,35.40
2018-07-22T17:30:52.805Z,37.00
2018-07-22T17:33:21.489Z,39.73
2018-07-22T17:35:50.230Z,40.63
2018-07-22T17:38:40.722Z,43.60
2018-07-22T17:41:09.429Z,47.20
2018-07-22T17:43:38.054Z,48.00
2018-07-22T17:46:12.231Z,55.43
2018-07-22T17:48:41.005Z,53.97
2018-07-22T17:51:09.757Z,53.13
2018-07-22T17:53:38.027Z,52.60
2018-07-22T17:56:06.810Z,55.27
2018-07-22T18:01:42.520Z,53.73
2018-07-22T18:04:11.194Z,48.20
2018-07-22T18:06:39.822Z,45.27
2018-07-22T18:09:09.245Z,38.10
2018-07-22T18:11:56.567Z,45.23
2018-07-22T18:14:25.253Z,47.30
2018-07-22T18:19:53.938Z,46.17
2018-07-22T18:22:22.655Z,43.90
2018-07-22T18:24:51.472Z,49.23
2018-07-22T18:27:28.498Z,42.00
2018-07-22T18:29:57.194Z,39.13
2018-07-22T18:32:25.890Z,43.00
2018-07-22T18:34:54.740Z,54.40
2018-07-22T18:52:11.636Z,47.63
2018-07-22T18:54:40.703Z,52.37
2018-07-22T18:57:09.859Z,46.87
2018-07-22T18:59:39.040Z,42.70
2018-07-22T19:02:08.017Z,46.80
2018-07-22T19:04:37.116Z,50.13
2018-07-22T19:07:08.225Z,57.60
2018-07-22T19:09:37.252Z,61.60
2018-07-22T19:12:06.370Z,71.60
2018-07-22T19:14:48.478Z,60.03
2018-07-22T19:17:17.680Z,78.30
2018-07-22T19:19:46.809Z,86.13
2018-07-22T19:22:15.850Z,89.00
2018-07-22T19:24:45.405Z,94.67
2018-07-22T19:27:14.461Z,82.63
2018-07-22T19:29:43.498Z,92.70
2018-07-22T19:32:12.502Z,65.20
2018-07-22T19:34:41.605Z,63.77
2018-07-22T19:37:10.651Z,60.17
2018-07-22T19:39:39.655Z,60.53
2018-07-22T19:42:08.716Z,58.27
2018-07-22T19:44:55.299Z,53.13
2018-07-22T19:47:24.288Z,48.47
2018-07-22T19:49:53.447Z,47.87
2018-07-22T19:52:22.513Z,49.80
2018-07-22T19:54:51.748Z,52.33
2018-07-22T19:57:20.974Z,53.00
2018-07-22T19:59:50.064Z,60.50
2018-07-22T20:02:19.068Z,51.73
2018-07-22T20:04:48.121Z,53.53
2018-07-22T20:07:17.101Z,48.97
2018-07-22T20:09:46.242Z,52.23
2018-07-22T20:12:14.974Z,48.50
2018-07-22T20:14:43.916Z,49.03
2018-07-22T20:17:13.317Z,48.93
2018-07-22T20:19:42.420Z,50.10
2018-07-22T20:22:11.572Z,48.20
2018-07-22T20:24:40.637Z,55.33
2018-07-22T20:27:09.728Z,49.83
2018-07-22T20:29:38.786Z,48.73
2018-07-22T20:32:07.647Z,47.70
2018-07-22T20:34:36.456Z,44.97
2018-07-22T20:37:05.541Z,44.30
2018-07-22T20:39:34.578Z,44.60
2018-07-22T20:42:03.739Z,45.00
2018-07-22T20:44:32.506Z,47.03
2018-07-22T20:47:01.279Z,44.63
2018-07-22T20:52:34.654Z,48.93
2018-07-22T20:55:03.342Z,58.77
2018-07-22T20:57:32.096Z,59.30
2018-07-22T21:00:00.875Z,65.33
2018-07-22T21:02:29.568Z,58.67
2018-07-22T21:04:58.389Z,64.17
2018-07-22T21:07:27.069Z,63.47
2018-07-22T21:09:55.823Z,58.70
2018-07-22T21:12:45.946Z,51.53
2018-07-22T21:15:15.231Z,51.60
2018-07-22T21:17:45.137Z,55.50
2018-07-22T21:20:13.955Z,53.90
2018-07-22T21:22:42.667Z,59.50
2018-07-22T21:25:11.571Z,60.90
2018-07-22T21:27:40.335Z,55.47
2018-07-22T21:30:10.150Z,54.00
2018-07-22T21:32:38.986Z,59.67
2018-07-22T21:35:08.010Z,58.57
2018-07-22T21:37:36.837Z,58.90
2018-07-22T21:40:06.007Z,59.73
2018-07-22T21:42:34.737Z,59.43
2018-07-22T21:45:04.438Z,63.20
2018-07-22T21:47:33.229Z,60.63
2018-07-22T21:50:01.912Z,62.37
2018-07-22T21:52:30.605Z,61.60
2018-07-22T21:54:59.295Z,56.00
2018-07-22T21:57:28.089Z,55.53
2018-07-22T21:59:56.821Z,49.93
2018-07-22T22:02:35.317Z,48.00
2018-07-22T22:05:04.711Z,41.60
2018-07-22T22:07:33.749Z,41.53
2018-07-22T22:10:02.459Z,34.67
2018-07-22T22:12:31.202Z,35.70
2018-07-22T22:14:59.943Z,34.80
2018-07-22T22:17:28.799Z,34.77
2018-07-22T22:19:57.578Z,36.00
2018-07-22T22:22:26.354Z,36.27
2018-07-22T22:24:55.001Z,34.90
2018-07-22T22:27:23.647Z,36.03
2018-07-22T22:29:52.369Z,36.27
2018-07-22T22:32:21.005Z,37.30
2018-07-22T22:34:49.741Z,39.60
2018-07-22T22:37:18.354Z,36.20
2018-07-22T22:39:47.050Z,38.00
2018-07-22T22:42:15.724Z,33.60
2018-07-22T22:44:44.414Z,33.77
2018-07-22T22:47:13.128Z,36.27
2018-07-22T22:49:41.790Z,34.57
2018-07-22T22:52:10.479Z,38.03
2018-07-22T22:54:40.003Z,38.83
2018-07-22T22:57:08.791Z,38.30
2018-07-22T22:59:37.465Z,35.13
2018-07-22T23:02:06.323Z,38.77
2018-07-22T23:04:34.958Z,39.17
2018-07-22T23:07:03.621Z,42.27
2018-07-22T23:09:32.349Z,44.13
2018-07-22T23:12:01.031Z,46.03
2018-07-22T23:14:29.715Z,37.70
2018-07-22T23:16:58.465Z,40.57
2018-07-22T23:19:27.141Z,39.50
2018-07-22T23:21:55.767Z,41.07
2018-07-22T23:24:24.390Z,40.63
2018-07-22T23:26:53.060Z,37.90
2018-07-22T23:29:21.742Z,37.70
2018-07-22T23:31:50.430Z,37.37
2018-07-22T23:34:19.094Z,37.60
2018-07-22T23:36:47.458Z,42.30
2018-07-22T23:39:16.202Z,33.67
2018-07-22T23:41:44.869Z,33.70
2018-07-22T23:44:13.562Z,33.03
2018-07-22T23:46:42.191Z,37.73
2018-07-22T23:49:10.836Z,40.00
2018-07-22T23:51:39.467Z,36.77
2018-07-22T23:54:08.073Z,31.90
2018-07-22T23:56:36.877Z,36.73
2018-07-22T23:59:05.582Z,44.90
